sensor_id;sensor_type;location;lat;lon;timestamp;pressure;altitude;pressure_sealevel;temperature;humidity
70314;BME280;57725;47.526;18.986;2023-04-10T00:01:39;100525.63;;;8.75;92.87
70314;BME280;57725;47.526;18.986;2023-04-10T00:04:04;100522.16;;;8.74;93.31
70314;BME280;57725;47.526;18.986;2023-04-10T00:06:32;100518.69;;;8.74;92.99
70314;BME280;57725;47.526;18.986;2023-04-10T00:08:58;100520.44;;;8.73;93.27
70314;BME280;57725;47.526;18.986;2023-04-10T00:11:26;100518.69;;;8.74;93.09
70314;BME280;57725;47.526;18.986;2023-04-10T00:13:52;100519.59;;;8.73;93.09
70314;BME280;57725;47.526;18.986;2023-04-10T00:16:20;100516.16;;;8.70;93.07
70314;BME280;57725;47.526;18.986;2023-04-10T00:18:48;100511.78;;;8.73;93.08
70314;BME280;57725;47.526;18.986;2023-04-10T00:21:13;100504.00;;;8.71;93.28
70314;BME280;57725;47.526;18.986;2023-04-10T00:23:38;100508.34;;;8.70;93.40
70314;BME280;57725;47.526;18.986;2023-04-10T00:26:04;100498.81;;;8.69;93.12
70314;BME280;57725;47.526;18.986;2023-04-10T00:28:30;100508.38;;;8.69;93.01
70314;BME280;57725;47.526;18.986;2023-04-10T00:30:57;100502.28;;;8.70;93.27
70314;BME280;57725;47.526;18.986;2023-04-10T00:33:23;100499.72;;;8.67;93.18
70314;BME280;57725;47.526;18.986;2023-04-10T00:35:48;100505.78;;;8.69;93.30
70314;BME280;57725;47.526;18.986;2023-04-10T00:38:18;100504.03;;;8.69;93.30
70314;BME280;57725;47.526;18.986;2023-04-10T00:40:44;100509.28;;;8.68;93.43
70314;BME280;57725;47.526;18.986;2023-04-10T00:43:16;100501.47;;;8.66;93.26
70314;BME280;57725;47.526;18.986;2023-04-10T00:45:44;100498.88;;;8.66;93.24
70314;BME280;57725;47.526;18.986;2023-04-10T00:48:10;100503.22;;;8.66;93.33
70314;BME280;57725;47.526;18.986;2023-04-10T00:50:36;100489.34;;;8.65;93.37
70314;BME280;57725;47.526;18.986;2023-04-10T00:53:02;100503.22;;;8.66;93.44
70314;BME280;57725;47.526;18.986;2023-04-10T00:55:27;100489.34;;;8.65;93.17
70314;BME280;57725;47.526;18.986;2023-04-10T00:57:55;100490.25;;;8.64;93.14
70314;BME280;57725;47.526;18.986;2023-04-10T01:00:21;100487.66;;;8.64;93.36
70314;BME280;57725;47.526;18.986;2023-04-10T01:02:49;100491.16;;;8.63;93.51
70314;BME280;57725;47.526;18.986;2023-04-10T01:05:17;100490.25;;;8.64;93.49
70314;BME280;57725;47.526;18.986;2023-04-10T01:07:51;100490.31;;;8.63;93.57
70314;BME280;57725;47.526;18.986;2023-04-10T01:10:52;100492.06;;;8.62;93.30
70314;BME280;57725;47.526;18.986;2023-04-10T01:13:48;100485.13;;;8.61;93.45
70314;BME280;57725;47.526;18.986;2023-04-10T01:16:25;100481.66;;;8.61;93.36
70314;BME280;57725;47.526;18.986;2023-04-10T01:19:01;100481.66;;;8.61;93.64
70314;BME280;57725;47.526;18.986;2023-04-10T01:21:30;100477.34;;;8.60;93.53
70314;BME280;57725;47.526;18.986;2023-04-10T01:29:18;100478.22;;;8.59;93.20
70314;BME280;57725;47.526;18.986;2023-04-10T01:31:59;100477.38;;;8.58;93.32
70314;BME280;57725;47.526;18.986;2023-04-10T01:34:48;100476.50;;;8.58;93.41
70314;BME280;57725;47.526;18.986;2023-04-10T01:37:26;100473.06;;;8.57;93.50
70314;BME280;57725;47.526;18.986;2023-04-10T01:39:59;100471.34;;;8.56;93.44
70314;BME280;57725;47.526;18.986;2023-04-10T01:42:33;100473.09;;;8.56;93.71
70314;BME280;57725;47.526;18.986;2023-04-10T01:45:03;100474.84;;;8.55;93.55
70314;BME280;57725;47.526;18.986;2023-04-10T01:47:30;100471.38;;;8.55;93.45
70314;BME280;57725;47.526;18.986;2023-04-10T01:50:02;100475.69;;;8.56;93.37
70314;BME280;57725;47.526;18.986;2023-04-10T01:52:27;100473.13;;;8.54;93.51
70314;BME280;57725;47.526;18.986;2023-04-10T01:54:55;100466.22;;;8.53;93.79
70314;BME280;57725;47.526;18.986;2023-04-10T01:57:21;100474.03;;;8.53;93.74
70314;BME280;57725;47.526;18.986;2023-04-10T01:59:46;100470.59;;;8.51;93.52
70314;BME280;57725;47.526;18.986;2023-04-10T02:02:12;100477.53;;;8.52;93.66
70314;BME280;57725;47.526;18.986;2023-04-10T02:04:37;100476.69;;;8.52;93.42
70314;BME280;57725;47.526;18.986;2023-04-10T02:07:10;100474.06;;;8.52;93.61
70314;BME280;57725;47.526;18.986;2023-04-10T02:12:35;100478.44;;;8.51;93.46
70314;BME280;57725;47.526;18.986;2023-04-10T02:15:06;100475.00;;;8.49;93.73
70314;BME280;57725;47.526;18.986;2023-04-10T02:17:37;100476.75;;;8.49;93.45
70314;BME280;57725;47.526;18.986;2023-04-10T02:20:07;100475.84;;;8.50;93.37
70314;BME280;57725;47.526;18.986;2023-04-10T02:22:33;100468.97;;;8.47;93.66
70314;BME280;57725;47.526;18.986;2023-04-10T02:25:15;100470.69;;;8.48;93.54
70314;BME280;57725;47.526;18.986;2023-04-10T02:27:41;100475.88;;;8.48;93.39
70314;BME280;57725;47.526;18.986;2023-04-10T02:30:07;100471.56;;;8.47;93.55
70314;BME280;57725;47.526;18.986;2023-04-10T02:32:32;100472.44;;;8.48;93.61
70314;BME280;57725;47.526;18.986;2023-04-10T02:34:58;100469.84;;;8.46;93.90
70314;BME280;57725;47.526;18.986;2023-04-10T02:37:24;100464.66;;;8.46;93.44
70314;BME280;57725;47.526;18.986;2023-04-10T02:39:52;100465.53;;;8.45;93.67
70314;BME280;57725;47.526;18.986;2023-04-10T02:42:26;100457.75;;;8.44;93.52
70314;BME280;57725;47.526;18.986;2023-04-10T02:44:51;100456.00;;;8.44;93.82
70314;BME280;57725;47.526;18.986;2023-04-10T02:47:19;100454.25;;;8.45;93.58
70314;BME280;57725;47.526;18.986;2023-04-10T02:49:44;100451.69;;;8.43;93.62
70314;BME280;57725;47.526;18.986;2023-04-10T02:52:10;100452.53;;;8.44;93.84
70314;BME280;57725;47.526;18.986;2023-04-10T02:54:37;100444.78;;;8.42;93.65
70314;BME280;57725;47.526;18.986;2023-04-10T02:57:06;100452.59;;;8.42;93.87
70314;BME280;57725;47.526;18.986;2023-04-10T02:59:36;100455.22;;;8.42;93.66
70314;BME280;57725;47.526;18.986;2023-04-10T03:02:04;100448.28;;;8.41;93.53
70314;BME280;57725;47.526;18.986;2023-04-10T03:04:33;100445.69;;;8.41;93.54
70314;BME280;57725;47.526;18.986;2023-04-10T03:06:59;100444.84;;;8.39;93.86
70314;BME280;57725;47.526;18.986;2023-04-10T03:09:24;100445.69;;;8.41;93.71
70314;BME280;57725;47.526;18.986;2023-04-10T03:11:50;100438.75;;;8.40;93.58
70314;BME280;57725;47.526;18.986;2023-04-10T03:14:18;100444.81;;;8.41;93.57
70314;BME280;57725;47.526;18.986;2023-04-10T03:16:44;100436.22;;;8.37;93.71
70314;BME280;57725;47.526;18.986;2023-04-10T03:19:11;100440.53;;;8.38;93.73
70314;BME280;57725;47.526;18.986;2023-04-10T03:21:39;100449.22;;;8.39;93.48
70314;BME280;57725;47.526;18.986;2023-04-10T03:24:05;100447.50;;;8.38;93.63
70314;BME280;57725;47.526;18.986;2023-04-10T03:26:33;100444.03;;;8.37;93.99
70314;BME280;57725;47.526;18.986;2023-04-10T03:28:58;100451.00;;;8.37;93.75
70314;BME280;57725;47.526;18.986;2023-04-10T03:31:23;100444.97;;;8.34;93.53
70314;BME280;57725;47.526;18.986;2023-04-10T03:33:49;100444.97;;;8.34;93.58
70314;BME280;57725;47.526;18.986;2023-04-10T03:36:15;100449.28;;;8.35;93.84
70314;BME280;57725;47.526;18.986;2023-04-10T03:38:41;100438.03;;;8.33;93.56
70314;BME280;57725;47.526;18.986;2023-04-10T03:41:06;100445.84;;;8.33;93.58
70314;BME280;57725;47.526;18.986;2023-04-10T03:43:31;100444.09;;;8.34;93.67
70314;BME280;57725;47.526;18.986;2023-04-10T03:45:57;100447.63;;;8.31;93.59
70314;BME280;57725;47.526;18.986;2023-04-10T03:48:25;100448.47;;;8.32;93.68
70314;BME280;57725;47.526;18.986;2023-04-10T03:50:53;100451.09;;;8.32;93.86
70314;BME280;57725;47.526;18.986;2023-04-10T03:53:18;100453.69;;;8.32;93.58
70314;BME280;57725;47.526;18.986;2023-04-10T03:55:44;100455.47;;;8.30;93.58
70314;BME280;57725;47.526;18.986;2023-04-10T03:58:11;100458.09;;;8.30;93.64
70314;BME280;57725;47.526;18.986;2023-04-10T04:00:39;100453.75;;;8.29;93.55
70314;BME280;57725;47.526;18.986;2023-04-10T04:03:10;100453.75;;;8.29;93.71
70314;BME280;57725;47.526;18.986;2023-04-10T04:05:37;100458.13;;;8.28;93.70
70314;BME280;57725;47.526;18.986;2023-04-10T04:08:02;100458.97;;;8.29;93.77
70314;BME280;57725;47.526;18.986;2023-04-10T04:10:33;100462.50;;;8.26;93.60
70314;BME280;57725;47.526;18.986;2023-04-10T04:12:58;100463.34;;;8.27;93.63
70314;BME280;57725;47.526;18.986;2023-04-10T04:15:26;100462.50;;;8.26;93.50
70314;BME280;57725;47.526;18.986;2023-04-10T04:17:51;100466.00;;;8.25;93.74
70314;BME280;57725;47.526;18.986;2023-04-10T04:20:19;100470.34;;;8.25;93.52
70314;BME280;57725;47.526;18.986;2023-04-10T04:22:45;100466.00;;;8.25;93.95
70314;BME280;57725;47.526;18.986;2023-04-10T04:25:11;100466.84;;;8.26;93.59
70314;BME280;57725;47.526;18.986;2023-04-10T04:27:36;100470.38;;;8.23;93.75
70314;BME280;57725;47.526;18.986;2023-04-10T04:30:03;100462.63;;;8.20;93.98
70314;BME280;57725;47.526;18.986;2023-04-10T04:32:28;100467.78;;;8.23;93.86
70314;BME280;57725;47.526;18.986;2023-04-10T04:34:58;100470.38;;;8.23;93.65
70314;BME280;57725;47.526;18.986;2023-04-10T04:37:24;100461.72;;;8.23;93.80
70314;BME280;57725;47.526;18.986;2023-04-10T04:39:49;100470.41;;;8.22;93.78
70314;BME280;57725;47.526;18.986;2023-04-10T04:42:15;100471.31;;;8.21;93.69
70314;BME280;57725;47.526;18.986;2023-04-10T04:44:40;100480.88;;;8.20;93.96
70314;BME280;57725;47.526;18.986;2023-04-10T04:47:06;100481.75;;;8.19;93.96
70314;BME280;57725;47.526;18.986;2023-04-10T04:49:31;100487.81;;;8.20;93.63
70314;BME280;57725;47.526;18.986;2023-04-10T04:51:56;100485.22;;;8.20;93.62
70314;BME280;57725;47.526;18.986;2023-04-10T04:54:24;100486.97;;;8.19;93.84
70314;BME280;57725;47.526;18.986;2023-04-10T04:56:50;100488.78;;;8.17;93.51
70314;BME280;57725;47.526;18.986;2023-04-10T04:59:15;100493.13;;;8.17;93.71
70314;BME280;57725;47.526;18.986;2023-04-10T05:01:40;100493.13;;;8.17;93.94
70314;BME280;57725;47.526;18.986;2023-04-10T05:04:08;100497.47;;;8.16;93.86
70314;BME280;57725;47.526;18.986;2023-04-10T05:06:33;100499.22;;;8.16;93.72
70314;BME280;57725;47.526;18.986;2023-04-10T05:08:59;100496.63;;;8.16;93.89
70314;BME280;57725;47.526;18.986;2023-04-10T05:11:25;100498.38;;;8.15;94.09
70314;BME280;57725;47.526;18.986;2023-04-10T05:13:50;100502.72;;;8.15;93.85
70314;BME280;57725;47.526;18.986;2023-04-10T05:16:20;100510.53;;;8.15;93.93
70314;BME280;57725;47.526;18.986;2023-04-10T05:18:46;100508.84;;;8.12;93.99
70314;BME280;57725;47.526;18.986;2023-04-10T05:21:13;100504.50;;;8.13;94.04
70314;BME280;57725;47.526;18.986;2023-04-10T05:23:43;100514.06;;;8.12;93.94
70314;BME280;57725;47.526;18.986;2023-04-10T05:26:13;100510.59;;;8.12;94.27
70314;BME280;57725;47.526;18.986;2023-04-10T05:28:44;100503.66;;;8.11;94.08
70314;BME280;57725;47.526;18.986;2023-04-10T05:31:09;100500.16;;;8.12;94.16
70314;BME280;57725;47.526;18.986;2023-04-10T05:33:35;100502.81;;;8.10;94.29
70314;BME280;57725;47.526;18.986;2023-04-10T05:36:01;100509.75;;;8.10;94.40
70314;BME280;57725;47.526;18.986;2023-04-10T05:38:29;100508.91;;;8.09;94.51
70314;BME280;57725;47.526;18.986;2023-04-10T05:40:54;100506.31;;;8.08;94.55
70314;BME280;57725;47.526;18.986;2023-04-10T05:43:20;100508.03;;;8.09;94.59
70314;BME280;57725;47.526;18.986;2023-04-10T05:45:46;100505.50;;;8.07;94.67
70314;BME280;57725;47.526;18.986;2023-04-10T05:48:13;100502.06;;;8.05;94.79
70314;BME280;57725;47.526;18.986;2023-04-10T05:50:39;100504.66;;;8.07;94.81
70314;BME280;57725;47.526;18.986;2023-04-10T05:53:09;100507.25;;;8.07;94.71
70314;BME280;57725;47.526;18.986;2023-04-10T05:55:34;100508.13;;;8.06;94.50
70314;BME280;57725;47.526;18.986;2023-04-10T05:58:00;100506.41;;;8.05;94.89
70314;BME280;57725;47.526;18.986;2023-04-10T06:00:28;100508.16;;;8.04;94.80
70314;BME280;57725;47.526;18.986;2023-04-10T06:02:53;100502.09;;;8.04;94.59
70314;BME280;57725;47.526;18.986;2023-04-10T06:05:18;100505.59;;;8.03;94.84
70314;BME280;57725;47.526;18.986;2023-04-10T06:07:44;100502.09;;;8.04;94.72
70314;BME280;57725;47.526;18.986;2023-04-10T06:10:09;100512.53;;;8.02;95.07
70314;BME280;57725;47.526;18.986;2023-04-10T06:12:37;100504.72;;;8.02;94.93
70314;BME280;57725;47.526;18.986;2023-04-10T06:15:06;100504.69;;;8.04;94.98
70314;BME280;57725;47.526;18.986;2023-04-10T06:17:31;100509.03;;;8.05;94.86
70314;BME280;57725;47.526;18.986;2023-04-10T06:19:57;100509.88;;;8.05;94.87
70314;BME280;57725;47.526;18.986;2023-04-10T06:22:28;100503.78;;;8.06;94.84
70314;BME280;57725;47.526;18.986;2023-04-10T06:24:54;100503.72;;;8.08;95.10
70314;BME280;57725;47.526;18.986;2023-04-10T06:27:22;100501.09;;;8.09;95.10
70314;BME280;57725;47.526;18.986;2023-04-10T06:29:47;100506.28;;;8.09;95.05
70314;BME280;57725;47.526;18.986;2023-04-10T06:32:15;100500.19;;;8.10;95.38
70314;BME280;57725;47.526;18.986;2023-04-10T06:34:40;100507.13;;;8.11;95.24
70314;BME280;57725;47.526;18.986;2023-04-10T06:37:08;100499.28;;;8.13;95.23
70314;BME280;57725;47.526;18.986;2023-04-10T06:39:33;100503.59;;;8.14;95.29
70314;BME280;57725;47.526;18.986;2023-04-10T06:42:01;100507.91;;;8.15;95.37
70314;BME280;57725;47.526;18.986;2023-04-10T06:44:29;100508.75;;;8.17;95.30
70314;BME280;57725;47.526;18.986;2023-04-10T06:47:03;100501.81;;;8.16;95.22
70314;BME280;57725;47.526;18.986;2023-04-10T06:49:30;100502.72;;;8.15;95.64
70314;BME280;57725;47.526;18.986;2023-04-10T06:51:56;100502.69;;;8.16;95.98
70314;BME280;57725;47.526;18.986;2023-04-10T06:54:21;100505.28;;;8.16;95.97
70314;BME280;57725;47.526;18.986;2023-04-10T06:56:53;100498.34;;;8.17;95.73
70314;BME280;57725;47.526;18.986;2023-04-10T06:59:25;100503.53;;;8.17;96.19
70314;BME280;57725;47.526;18.986;2023-04-10T07:01:50;100499.19;;;8.17;96.27
70314;BME280;57725;47.526;18.986;2023-04-10T07:04:15;100498.28;;;8.18;96.53
70314;BME280;57725;47.526;18.986;2023-04-10T07:06:41;100497.38;;;8.19;96.29
70314;BME280;57725;47.526;18.986;2023-04-10T07:09:08;100499.16;;;8.19;96.55
70314;BME280;57725;47.526;18.986;2023-04-10T07:11:36;100496.56;;;8.19;96.41
70314;BME280;57725;47.526;18.986;2023-04-10T07:14:03;100498.28;;;8.18;96.29
70314;BME280;57725;47.526;18.986;2023-04-10T07:16:29;100491.38;;;8.17;96.16
70314;BME280;57725;47.526;18.986;2023-04-10T07:18:57;100497.38;;;8.19;96.27
70314;BME280;57725;47.526;18.986;2023-04-10T07:21:22;100487.81;;;8.20;96.27
70314;BME280;57725;47.526;18.986;2023-04-10T07:23:50;100494.75;;;8.21;96.10
70314;BME280;57725;47.526;18.986;2023-04-10T07:26:15;100489.53;;;8.21;96.10
70314;BME280;57725;47.526;18.986;2023-04-10T07:28:41;100490.38;;;8.21;95.92
70314;BME280;57725;47.526;18.986;2023-04-10T07:31:06;100490.38;;;8.21;96.04
70314;BME280;57725;47.526;18.986;2023-04-10T07:33:34;100486.03;;;8.22;95.79
70314;BME280;57725;47.526;18.986;2023-04-10T07:36:00;100483.47;;;8.20;95.79
70314;BME280;57725;47.526;18.986;2023-04-10T07:38:27;100483.41;;;8.23;95.80
70314;BME280;57725;47.526;18.986;2023-04-10T07:40:58;100485.16;;;8.23;95.79
70314;BME280;57725;47.526;18.986;2023-04-10T07:43:24;100479.09;;;8.22;95.80
70314;BME280;57725;47.526;18.986;2023-04-10T07:45:50;100479.09;;;8.22;95.78
70314;BME280;57725;47.526;18.986;2023-04-10T07:48:18;100472.09;;;8.24;95.74
70314;BME280;57725;47.526;18.986;2023-04-10T07:50:43;100470.38;;;8.23;95.69
70314;BME280;57725;47.526;18.986;2023-04-10T07:53:15;100464.28;;;8.24;95.93
70314;BME280;57725;47.526;18.986;2023-04-10T07:55:42;100465.09;;;8.26;95.70
70314;BME280;57725;47.526;18.986;2023-04-10T07:58:13;100465.97;;;8.27;95.78
70314;BME280;57725;47.526;18.986;2023-04-10T08:00:38;100465.97;;;8.27;95.73
70314;BME280;57725;47.526;18.986;2023-04-10T08:03:04;100460.75;;;8.27;95.80
70314;BME280;57725;47.526;18.986;2023-04-10T08:05:33;100462.47;;;8.28;95.61
70314;BME280;57725;47.526;18.986;2023-04-10T08:07:59;100471.09;;;8.30;95.54
70314;BME280;57725;47.526;18.986;2023-04-10T08:10:24;100461.56;;;8.29;95.88
70314;BME280;57725;47.526;18.986;2023-04-10T08:12:52;100457.22;;;8.29;95.58
70314;BME280;57725;47.526;18.986;2023-04-10T08:15:18;100467.56;;;8.31;95.56
70314;BME280;57725;47.526;18.986;2023-04-10T08:17:43;100455.44;;;8.31;95.33
70314;BME280;57725;47.526;18.986;2023-04-10T08:20:10;100460.69;;;8.30;95.57
70314;BME280;57725;47.526;18.986;2023-04-10T08:22:35;100465.84;;;8.33;95.61
70314;BME280;57725;47.526;18.986;2023-04-10T08:25:01;100458.91;;;8.32;95.41
70314;BME280;57725;47.526;18.986;2023-04-10T08:27:29;100465.84;;;8.33;95.62
70314;BME280;57725;47.526;18.986;2023-04-10T08:29:55;100466.66;;;8.35;95.56
70314;BME280;57725;47.526;18.986;2023-04-10T08:32:24;100467.50;;;8.35;95.37
70314;BME280;57725;47.526;18.986;2023-04-10T08:34:52;100457.97;;;8.34;95.44
70314;BME280;57725;47.526;18.986;2023-04-10T08:37:19;100458.81;;;8.37;95.35
70314;BME280;57725;47.526;18.986;2023-04-10T08:39:45;100457.94;;;8.36;95.54
70314;BME280;57725;47.526;18.986;2023-04-10T08:42:11;100457.06;;;8.37;95.45
70314;BME280;57725;47.526;18.986;2023-04-10T08:44:40;100452.66;;;8.39;95.49
70314;BME280;57725;47.526;18.986;2023-04-10T08:47:07;100445.75;;;8.38;95.30
70314;BME280;57725;47.526;18.986;2023-04-10T08:49:59;100443.16;;;8.38;95.36
70314;BME280;57725;47.526;18.986;2023-04-10T08:52:29;100456.13;;;8.40;95.42
70314;BME280;57725;47.526;18.986;2023-04-10T08:54:59;100452.63;;;8.41;95.38
70314;BME280;57725;47.526;18.986;2023-04-10T08:57:31;100453.50;;;8.41;95.24
70314;BME280;57725;47.526;18.986;2023-04-10T08:59:57;100451.75;;;8.42;95.06
70314;BME280;57725;47.526;18.986;2023-04-10T09:02:23;100451.75;;;8.42;95.32
70314;BME280;57725;47.526;18.986;2023-04-10T09:04:52;100440.47;;;8.41;95.24
70314;BME280;57725;47.526;18.986;2023-04-10T09:07:23;100441.25;;;8.43;95.33
70314;BME280;57725;47.526;18.986;2023-04-10T09:09:48;100441.22;;;8.45;95.42
70314;BME280;57725;47.526;18.986;2023-04-10T09:12:15;100434.31;;;8.44;94.98
70314;BME280;57725;47.526;18.986;2023-04-10T09:14:41;100435.13;;;8.46;95.17
70314;BME280;57725;47.526;18.986;2023-04-10T09:17:27;100439.41;;;8.48;95.27
70314;BME280;57725;47.526;18.986;2023-04-10T09:19:55;100429.03;;;8.47;95.47
70314;BME280;57725;47.526;18.986;2023-04-10T09:22:30;100429.84;;;8.49;95.07
70314;BME280;57725;47.526;18.986;2023-04-10T09:24:57;100422.91;;;8.48;95.38
70314;BME280;57725;47.526;18.986;2023-04-10T09:27:33;100419.38;;;8.50;95.12
70314;BME280;57725;47.526;18.986;2023-04-10T09:30:04;100412.47;;;8.49;95.29
70314;BME280;57725;47.526;18.986;2023-04-10T09:35:05;100420.22;;;8.52;95.25
70314;BME280;57725;47.526;18.986;2023-04-10T09:37:33;100413.19;;;8.54;94.94
70314;BME280;57725;47.526;18.986;2023-04-10T09:40:02;100411.50;;;8.53;95.24
70314;BME280;57725;47.526;18.986;2023-04-10T09:42:33;100409.69;;;8.55;95.02
70314;BME280;57725;47.526;18.986;2023-04-10T09:45:02;100414.84;;;8.57;95.05
70314;BME280;57725;47.526;18.986;2023-04-10T09:47:31;100413.97;;;8.58;95.30
70314;BME280;57725;47.526;18.986;2023-04-10T09:49:59;100416.53;;;8.59;94.90
70314;BME280;57725;47.526;18.986;2023-04-10T09:54:58;100407.81;;;8.60;94.96
70314;BME280;57725;47.526;18.986;2023-04-10T09:57:29;100401.72;;;8.61;95.34
70314;BME280;57725;47.526;18.986;2023-04-10T10:00:01;100399.94;;;8.63;95.08
70314;BME280;57725;47.526;18.986;2023-04-10T10:02:32;100401.69;;;8.63;95.00
70314;BME280;57725;47.526;18.986;2023-04-10T10:05:03;100403.41;;;8.64;94.91
70314;BME280;57725;47.526;18.986;2023-04-10T10:07:29;100401.66;;;8.64;94.88
70314;BME280;57725;47.526;18.986;2023-04-10T10:09:59;100400.69;;;8.67;95.04
70314;BME280;57725;47.526;18.986;2023-04-10T10:12:43;100394.56;;;8.68;94.95
70314;BME280;57725;47.526;18.986;2023-04-10T10:15:23;100392.81;;;8.68;94.89
70314;BME280;57725;47.526;18.986;2023-04-10T10:18:08;100392.78;;;8.70;94.89
70314;BME280;57725;47.526;18.986;2023-04-10T10:20:37;100397.09;;;8.71;94.96
70314;BME280;57725;47.526;18.986;2023-04-10T10:23:05;100394.47;;;8.73;94.77
70314;BME280;57725;47.526;18.986;2023-04-10T10:25:33;100392.72;;;8.73;95.04
70314;BME280;57725;47.526;18.986;2023-04-10T10:28:12;100390.97;;;8.74;94.68
70314;BME280;57725;47.526;18.986;2023-04-10T10:30:39;100387.44;;;8.76;94.83
70314;BME280;57725;47.526;18.986;2023-04-10T10:33:06;100385.69;;;8.77;94.74
70314;BME280;57725;47.526;18.986;2023-04-10T10:35:34;100389.09;;;8.77;94.66
70314;BME280;57725;47.526;18.986;2023-04-10T10:38:04;100389.06;;;8.79;94.79
70314;BME280;57725;47.526;18.986;2023-04-10T10:40:37;100393.38;;;8.80;94.64
70314;BME280;57725;47.526;18.986;2023-04-10T10:43:17;100390.75;;;8.81;94.69
70314;BME280;57725;47.526;18.986;2023-04-10T10:46:02;100387.25;;;8.82;94.90
70314;BME280;57725;47.526;18.986;2023-04-10T10:48:28;100387.25;;;8.82;94.75
70314;BME280;57725;47.526;18.986;2023-04-10T10:50:55;100391.53;;;8.85;94.91
70314;BME280;57725;47.526;18.986;2023-04-10T10:53:37;100382.81;;;8.86;94.80
70314;BME280;57725;47.526;18.986;2023-04-10T10:58:54;100381.06;;;8.86;94.52
70314;BME280;57725;47.526;18.986;2023-04-10T11:01:27;100384.50;;;8.88;94.35
70314;BME280;57725;47.526;18.986;2023-04-10T11:03:55;100381.66;;;9.25;84.86
70314;BME280;57725;47.526;18.986;2023-04-10T11:06:47;100379.94;;;9.54;81.68
70314;BME280;57725;47.526;18.986;2023-04-10T11:12:14;100384.16;;;9.58;79.79
70314;BME280;57725;47.526;18.986;2023-04-10T11:14:41;100378.25;;;9.53;82.01
70314;BME280;57725;47.526;18.986;2023-04-10T11:17:11;100375.78;;;9.47;84.11
70314;BME280;57725;47.526;18.986;2023-04-10T11:19:56;100370.75;;;9.42;86.42
70314;BME280;57725;47.526;18.986;2023-04-10T11:22:26;100361.28;;;9.38;87.38
70314;BME280;57725;47.526;18.986;2023-04-10T11:24:59;100375.34;;;9.34;87.93
70314;BME280;57725;47.526;18.986;2023-04-10T11:27:42;100370.25;;;9.29;89.04
70314;BME280;57725;47.526;18.986;2023-04-10T11:30:34;100368.53;;;9.28;89.69
70314;BME280;57725;47.526;18.986;2023-04-10T11:33:01;100364.22;;;9.27;89.66
70314;BME280;57725;47.526;18.986;2023-04-10T11:35:28;100372.06;;;9.26;90.20
70314;BME280;57725;47.526;18.986;2023-04-10T11:38:12;100366.00;;;9.25;90.58
70314;BME280;57725;47.526;18.986;2023-04-10T11:41:02;100377.28;;;9.26;91.02
70314;BME280;57725;47.526;18.986;2023-04-10T11:43:30;100377.28;;;9.26;91.01
70314;BME280;57725;47.526;18.986;2023-04-10T11:46:04;100373.84;;;9.25;91.31
70314;BME280;57725;47.526;18.986;2023-04-10T11:48:30;100369.47;;;9.26;91.11
70314;BME280;57725;47.526;18.986;2023-04-10T11:50:56;100379.00;;;9.27;91.45
70314;BME280;57725;47.526;18.986;2023-04-10T11:53:21;100374.69;;;9.26;91.33
70314;BME280;57725;47.526;18.986;2023-04-10T11:55:50;100382.50;;;9.26;91.73
70314;BME280;57725;47.526;18.986;2023-04-10T11:58:26;100374.66;;;9.27;91.52
70314;BME280;57725;47.526;18.986;2023-04-10T12:01:02;100377.22;;;9.29;91.40
70314;BME280;57725;47.526;18.986;2023-04-10T12:03:41;100372.84;;;9.29;91.59
70314;BME280;57725;47.526;18.986;2023-04-10T12:06:12;100378.03;;;9.31;91.94
70314;BME280;57725;47.526;18.986;2023-04-10T12:08:44;100364.13;;;9.30;91.70
70314;BME280;57725;47.526;18.986;2023-04-10T12:11:12;100359.75;;;9.31;91.94
70314;BME280;57725;47.526;18.986;2023-04-10T12:13:40;100358.88;;;9.32;91.78
70314;BME280;57725;47.526;18.986;2023-04-10T12:16:09;100350.16;;;9.33;91.98
70314;BME280;57725;47.526;18.986;2023-04-10T12:18:37;100358.75;;;9.35;92.21
70314;BME280;57725;47.526;18.986;2023-04-10T12:21:03;100345.72;;;9.35;92.29
70314;BME280;57725;47.526;18.986;2023-04-10T12:23:38;100352.59;;;9.37;92.27
70314;BME280;57725;47.526;18.986;2023-04-10T12:26:16;100351.69;;;9.38;92.21
70314;BME280;57725;47.526;18.986;2023-04-10T12:28:49;100344.72;;;9.39;92.17
70314;BME280;57725;47.526;18.986;2023-04-10T12:31:17;100342.06;;;9.40;91.82
70314;BME280;57725;47.526;18.986;2023-04-10T12:33:52;100342.94;;;9.41;91.95
70314;BME280;57725;47.526;18.986;2023-04-10T12:36:23;100338.56;;;9.41;92.46
70314;BME280;57725;47.526;18.986;2023-04-10T12:38:53;100328.97;;;9.42;92.17
70314;BME280;57725;47.526;18.986;2023-04-10T12:41:23;100321.97;;;9.44;92.33
70314;BME280;57725;47.526;18.986;2023-04-10T12:43:50;100305.44;;;9.43;92.57
70314;BME280;57725;47.526;18.986;2023-04-10T12:46:26;100308.88;;;9.46;92.24
70314;BME280;57725;47.526;18.986;2023-04-10T12:48:53;100303.66;;;9.46;92.15
70314;BME280;57725;47.526;18.986;2023-04-10T12:51:19;100293.22;;;9.46;92.08
70314;BME280;57725;47.526;18.986;2023-04-10T12:53:45;100291.38;;;9.48;92.39
70314;BME280;57725;47.526;18.986;2023-04-10T12:56:11;100285.25;;;9.49;92.20
70314;BME280;57725;47.526;18.986;2023-04-10T12:58:38;100285.22;;;9.50;92.24
70314;BME280;57725;47.526;18.986;2023-04-10T13:01:07;100276.50;;;9.51;92.53
70314;BME280;57725;47.526;18.986;2023-04-10T13:03:36;100271.28;;;9.51;92.13
70314;BME280;57725;47.526;18.986;2023-04-10T13:06:05;100272.13;;;9.52;92.23
70314;BME280;57725;47.526;18.986;2023-04-10T13:08:31;100272.09;;;9.53;92.55
70314;BME280;57725;47.526;18.986;2023-04-10T13:10:57;100272.88;;;9.55;92.15
70314;BME280;57725;47.526;18.986;2023-04-10T13:13:29;100265.00;;;9.57;92.31
70314;BME280;57725;47.526;18.986;2023-04-10T13:15:57;100256.25;;;9.58;92.39
70314;BME280;57725;47.526;18.986;2023-04-10T13:18:22;100249.28;;;9.58;92.57